Time;durP1;ratioP1;P1;durP2;ratioP2;P2;SDS_P1;SDS_P2;PMS_P1;PMS_P2;Temp;Humidity;BMP_temperature;BMP_pressure;BME280_temperature;BME280_humidity;BME280_pressure;Samples;Min_cycle;Max_cycle;Signal;HPM_P1;HPM_P2
2023/09/06 00:04:09;;;;;;;5.60;3.38;;;;;;;;;;10333408;28;20520;-84
2023/09/06 00:09:11;;;;;;;6.35;3.50;;;;;;;;;;10340399;28;20511;-83
2023/09/06 00:14:15;;;;;;;5.53;3.10;;;;;;;;;;10336657;28;20412;-82
2023/09/06 00:19:17;;;;;;;3.28;2.78;;;;;;;;;;10337722;28;20525;-83
2023/09/06 00:24:20;;;;;;;4.55;2.60;;;;;;;;;;10336237;28;20485;-83
2023/09/06 00:29:24;;;;;;;4.93;3.10;;;;;;;;;;10337409;28;20495;-83
2023/09/06 00:34:26;;;;;;;4.25;3.22;;;;;;;;;;10344350;28;20450;-83
2023/09/06 00:39:30;;;;;;;6.10;2.90;;;;;;;;;;10347012;28;20413;-84
2023/09/06 00:44:34;;;;;;;5.25;3.00;;;;;;;;;;10343583;28;20434;-84
2023/09/06 00:49:36;;;;;;;4.10;3.10;;;;;;;;;;10338424;28;20424;-84
2023/09/06 00:54:39;;;;;;;4.25;3.08;;;;;;;;;;10344206;28;20412;-83
2023/09/06 00:59:44;;;;;;;3.83;3.00;;;;;;;;;;10342996;28;20405;-83
2023/09/06 01:04:47;;;;;;;4.90;3.55;;;;;;;;;;10343448;28;21639;-83
2023/09/06 01:09:49;;;;;;;4.00;3.35;;;;;;;;;;10343416;28;20523;-83
2023/09/06 01:14:53;;;;;;;5.72;3.30;;;;;;;;;;10343325;28;20416;-82
2023/09/06 01:20:08;;;;;;;5.50;3.15;;;;;;;;;;10344682;28;20412;-83
2023/09/06 01:25:12;;;;;;;3.67;3.07;;;;;;;;;;10343175;28;20412;-83
2023/09/06 01:30:15;;;;;;;4.30;3.17;;;;;;;;;;10343003;28;20460;-83
2023/09/06 01:35:17;;;;;;;3.80;3.07;;;;;;;;;;10342373;28;20413;-83
2023/09/06 01:40:21;;;;;;;3.05;2.75;;;;;;;;;;10338461;28;20463;-83
2023/09/06 01:45:24;;;;;;;4.43;2.95;;;;;;;;;;10340536;28;20440;-83
2023/09/06 01:50:26;;;;;;;4.72;3.22;;;;;;;;;;10341320;28;20459;-83
2023/09/06 01:55:30;;;;;;;4.78;3.20;;;;;;;;;;10344638;28;20422;-83
2023/09/06 02:00:34;;;;;;;4.35;3.30;;;;;;;;;;10340759;28;20423;-82
2023/09/06 02:05:37;;;;;;;4.78;3.15;;;;;;;;;;10340098;28;20552;-83
2023/09/06 02:10:41;;;;;;;3.40;2.92;;;;;;;;;;10340334;28;20937;-83
2023/09/06 02:15:43;;;;;;;4.70;3.42;;;;;;;;;;10339841;28;20459;-83
2023/09/06 02:20:48;;;;;;;4.43;2.83;;;;;;;;;;10340555;28;20467;-83
2023/09/06 02:25:51;;;;;;;4.75;3.33;;;;;;;;;;10340573;28;20818;-83
2023/09/06 02:30:53;;;;;;;5.20;3.40;;;;;;;;;;10338399;28;20597;-83
2023/09/06 02:35:56;;;;;;;4.07;3.13;;;;;;;;;;10343589;28;20480;-83
2023/09/06 02:40:59;;;;;;;4.17;3.40;;;;;;;;;;10339601;28;20411;-83
2023/09/06 02:46:03;;;;;;;4.97;3.50;;;;;;;;;;10338789;28;20481;-83
2023/09/06 02:51:08;;;;;;;3.42;3.13;;;;;;;;;;10339187;28;20526;-83
2023/09/06 02:56:13;;;;;;;4.70;3.10;;;;;;;;;;10336652;28;20765;-83
2023/09/06 03:01:20;;;;;;;5.40;3.47;;;;;;;;;;10339865;28;20400;-83
2023/09/06 03:06:32;;;;;;;5.53;3.80;;;;;;;;;;10340303;28;20475;-83
2023/09/06 03:11:35;;;;;;;5.30;3.40;;;;;;;;;;10338059;28;20464;-83
2023/09/06 03:16:39;;;;;;;3.53;3.05;;;;;;;;;;10336270;28;20415;-83
2023/09/06 03:21:41;;;;;;;6.15;3.50;;;;;;;;;;10338327;28;20815;-83
2023/09/06 03:26:45;;;;;;;5.03;3.20;;;;;;;;;;10340416;28;20400;-83
2023/09/06 03:31:47;;;;;;;4.80;3.50;;;;;;;;;;10337983;28;20509;-82
2023/09/06 03:36:51;;;;;;;6.15;3.80;;;;;;;;;;10342692;28;20475;-83
2023/09/06 03:41:57;;;;;;;4.38;3.60;;;;;;;;;;10333709;28;20413;-83
2023/09/06 03:46:59;;;;;;;4.45;3.58;;;;;;;;;;10338427;28;20475;-83
2023/09/06 03:52:02;;;;;;;5.03;3.38;;;;;;;;;;10337120;28;20511;-83
2023/09/06 03:57:07;;;;;;;4.45;3.47;;;;;;;;;;10336978;28;20411;-83
2023/09/06 04:02:13;;;;;;;7.82;3.55;;;;;;;;;;10334731;28;20411;-82
2023/09/06 04:07:15;;;;;;;5.25;3.63;;;;;;;;;;10346796;28;20403;-82
2023/09/06 04:12:19;;;;;;;8.63;3.50;;;;;;;;;;10350659;28;20543;-83
2023/09/06 04:17:22;;;;;;;5.40;3.88;;;;;;;;;;10350569;28;20418;-83
2023/09/06 04:22:24;;;;;;;4.50;3.40;;;;;;;;;;10334172;28;20405;-82
2023/09/06 04:27:28;;;;;;;4.38;3.15;;;;;;;;;;10351705;28;20444;-82
2023/09/06 04:32:30;;;;;;;3.43;3.10;;;;;;;;;;10350757;28;20436;-82
2023/09/06 04:37:33;;;;;;;4.90;3.63;;;;;;;;;;10349762;28;20491;-83
2023/09/06 04:42:36;;;;;;;4.60;3.28;;;;;;;;;;10349981;28;20407;-83
2023/09/06 04:47:43;;;;;;;4.57;3.40;;;;;;;;;;10344532;28;20415;-82
2023/09/06 04:52:47;;;;;;;6.70;3.63;;;;;;;;;;10346197;28;20519;-83
2023/09/06 04:57:53;;;;;;;4.95;3.22;;;;;;;;;;10345543;28;20444;-83
2023/09/06 05:02:56;;;;;;;6.32;3.92;;;;;;;;;;10342265;28;20832;-82
2023/09/06 05:07:58;;;;;;;4.68;3.63;;;;;;;;;;10347265;28;20404;-82
2023/09/06 05:13:02;;;;;;;5.80;4.20;;;;;;;;;;10347351;28;20436;-81
2023/09/06 05:18:06;;;;;;;7.65;3.78;;;;;;;;;;10343480;28;20413;-81
2023/09/06 05:23:09;;;;;;;5.57;3.63;;;;;;;;;;10347059;28;20972;-81
2023/09/06 05:28:15;;;;;;;6.15;3.78;;;;;;;;;;10343473;28;20443;-81
2023/09/06 05:33:17;;;;;;;7.40;3.88;;;;;;;;;;10342576;28;20411;-81
2023/09/06 05:38:19;;;;;;;7.65;4.10;;;;;;;;;;10339521;28;20411;-84
2023/09/06 05:43:23;;;;;;;4.32;3.67;;;;;;;;;;10326634;28;20480;-82
2023/09/06 05:48:25;;;;;;;4.50;3.80;;;;;;;;;;10345205;28;20437;-82
2023/09/06 05:53:29;;;;;;;5.07;3.55;;;;;;;;;;10342467;28;20409;-81
2023/09/06 05:58:37;;;;;;;7.28;3.72;;;;;;;;;;10338267;28;20456;-82
2023/09/06 06:03:40;;;;;;;4.75;3.65;;;;;;;;;;10339043;28;20436;-82
2023/09/06 06:08:42;;;;;;;4.55;3.30;;;;;;;;;;10336173;28;20451;-82
2023/09/06 06:13:46;;;;;;;5.70;3.40;;;;;;;;;;10337039;28;20442;-82
2023/09/06 06:18:49;;;;;;;5.07;3.35;;;;;;;;;;10339287;28;20984;-82
2023/09/06 06:23:51;;;;;;;5.47;3.55;;;;;;;;;;10340951;28;20885;-82
2023/09/06 06:28:55;;;;;;;9.30;3.50;;;;;;;;;;10341433;28;20465;-82
2023/09/06 06:33:59;;;;;;;5.30;3.50;;;;;;;;;;10344741;28;20417;-82
2023/09/06 06:39:01;;;;;;;5.25;3.50;;;;;;;;;;10338781;28;20416;-82
2023/09/06 06:44:05;;;;;;;3.37;2.77;;;;;;;;;;10339347;28;20887;-82
2023/09/06 06:49:08;;;;;;;5.40;2.60;;;;;;;;;;10338407;28;20514;-82
2023/09/06 06:54:14;;;;;;;3.92;2.20;;;;;;;;;;10337899;28;20434;-82
2023/09/06 06:59:18;;;;;;;3.13;2.37;;;;;;;;;;10337757;28;20444;-82
2023/09/06 07:04:20;;;;;;;3.77;2.43;;;;;;;;;;10337791;28;20782;-82
2023/09/06 07:09:22;;;;;;;3.50;2.33;;;;;;;;;;10338318;28;20519;-82
2023/09/06 07:14:26;;;;;;;2.72;2.30;;;;;;;;;;10338192;28;20420;-83
2023/09/06 07:19:28;;;;;;;2.75;2.15;;;;;;;;;;10338385;28;20409;-82
2023/09/06 07:24:30;;;;;;;2.70;1.87;;;;;;;;;;10340294;28;20958;-82
2023/09/06 07:29:34;;;;;;;6.43;2.47;;;;;;;;;;10343421;28;20431;-82
2023/09/06 07:34:36;;;;;;;3.80;1.97;;;;;;;;;;10340125;28;20412;-82
2023/09/06 07:39:39;;;;;;;2.53;2.20;;;;;;;;;;10337067;28;20500;-82
2023/09/06 07:44:43;;;;;;;2.90;2.00;;;;;;;;;;10336319;28;20560;-82
2023/09/06 07:49:45;;;;;;;3.58;2.03;;;;;;;;;;10337062;28;20935;-83
2023/09/06 07:54:47;;;;;;;3.23;2.17;;;;;;;;;;10338592;28;20908;-82
2023/09/06 07:59:51;;;;;;;3.28;2.30;;;;;;;;;;10316793;28;20916;-82
2023/09/06 08:04:53;;;;;;;3.87;2.10;;;;;;;;;;10337258;28;20819;-82
2023/09/06 08:09:55;;;;;;;4.53;1.97;;;;;;;;;;10340216;28;20428;-82
2023/09/06 08:14:59;;;;;;;2.60;1.88;;;;;;;;;;10337956;28;20481;-82
2023/09/06 08:20:04;;;;;;;2.03;1.80;;;;;;;;;;10337189;28;20887;-82
2023/09/06 08:25:07;;;;;;;2.78;1.60;;;;;;;;;;10337137;28;20410;-82
2023/09/06 08:30:12;;;;;;;3.08;2.15;;;;;;;;;;10337210;28;20424;-82
2023/09/06 08:35:14;;;;;;;2.95;1.70;;;;;;;;;;10334076;28;20413;-82
2023/09/06 08:40:18;;;;;;;2.20;1.70;;;;;;;;;;10337479;28;20436;-81
2023/09/06 08:45:23;;;;;;;2.47;1.60;;;;;;;;;;10340164;28;20422;-82
2023/09/06 08:50:27;;;;;;;3.35;1.50;;;;;;;;;;10329752;28;20464;-82
2023/09/06 08:55:29;;;;;;;2.42;1.83;;;;;;;;;;10340324;28;20404;-80
2023/09/06 09:00:34;;;;;;;4.60;1.80;;;;;;;;;;10345965;28;20454;-81
2023/09/06 09:05:37;;;;;;;2.47;1.60;;;;;;;;;;10318743;28;20842;-81
2023/09/06 09:10:40;;;;;;;2.10;1.60;;;;;;;;;;10316587;28;20525;-81
2023/09/06 09:15:44;;;;;;;2.87;1.80;;;;;;;;;;10322847;28;20453;-82
2023/09/06 09:20:46;;;;;;;2.20;1.98;;;;;;;;;;10332649;28;20412;-82
2023/09/06 09:25:49;;;;;;;3.65;1.83;;;;;;;;;;10339232;28;20407;-82
2023/09/06 09:30:53;;;;;;;3.03;1.90;;;;;;;;;;10332490;28;20460;-81
2023/09/06 09:35:56;;;;;;;2.80;2.10;;;;;;;;;;10335331;28;20440;-82
2023/09/06 09:41:06;;;;;;;2.13;1.80;;;;;;;;;;10335042;28;20441;-83
2023/09/06 09:46:10;;;;;;;2.17;1.97;;;;;;;;;;10328950;28;20506;-82
2023/09/06 09:51:16;;;;;;;2.30;1.90;;;;;;;;;;10335397;28;20503;-80
2023/09/06 09:56:22;;;;;;;2.40;1.65;;;;;;;;;;10333695;28;20450;-80
2023/09/06 10:01:25;;;;;;;3.10;1.60;;;;;;;;;;10328939;28;20921;-81
2023/09/06 10:06:31;;;;;;;2.50;1.75;;;;;;;;;;10335680;28;20909;-80
2023/09/06 10:11:37;;;;;;;1.60;1.50;;;;;;;;;;10329033;28;20466;-80
2023/09/06 10:16:41;;;;;;;3.17;1.60;;;;;;;;;;10327437;28;20495;-81
2023/09/06 10:21:44;;;;;;;2.35;1.50;;;;;;;;;;10325026;28;20444;-80
2023/09/06 10:26:48;;;;;;;1.70;1.40;;;;;;;;;;10326252;28;20491;-81
2023/09/06 10:31:53;;;;;;;2.22;1.60;;;;;;;;;;10335609;28;20903;-81
2023/09/06 10:36:58;;;;;;;2.00;1.50;;;;;;;;;;10337214;28;20436;-80
2023/09/06 10:42:30;;;;;;;1.60;1.38;;;;;;;;;;10333022;28;20468;-81
2023/09/06 10:47:35;;;;;;;1.60;1.50;;;;;;;;;;10334325;28;20468;-80
2023/09/06 10:52:42;;;;;;;1.50;1.37;;;;;;;;;;10334679;28;20487;-83
2023/09/06 10:57:50;;;;;;;1.40;1.30;;;;;;;;;;10320685;28;20519;-83
2023/09/06 11:03:17;;;;;;;2.90;1.48;;;;;;;;;;10323236;28;20889;-81
2023/09/06 11:08:25;;;;;;;3.47;1.77;;;;;;;;;;10328289;28;20585;-80
2023/09/06 11:13:32;;;;;;;17.88;8.27;;;;;;;;;;10321410;28;20500;-81
2023/09/06 11:18:45;;;;;;;9.30;5.30;;;;;;;;;;10326763;28;20448;-81
2023/09/06 11:23:49;;;;;;;4.70;2.65;;;;;;;;;;10320535;28;20901;-81
2023/09/06 11:29:03;;;;;;;2.80;2.00;;;;;;;;;;10329075;28;20463;-80
2023/09/06 11:34:11;;;;;;;2.20;1.60;;;;;;;;;;10328663;28;20484;-80
2023/09/06 11:39:18;;;;;;;4.53;2.50;;;;;;;;;;10326742;28;20533;-81
2023/09/06 11:44:23;;;;;;;2.30;1.73;;;;;;;;;;10321343;28;20982;-80
2023/09/06 11:49:26;;;;;;;2.90;1.70;;;;;;;;;;10322270;28;20511;-81
2023/09/06 11:54:31;;;;;;;2.85;1.33;;;;;;;;;;10329234;28;20450;-81
2023/09/06 11:59:34;;;;;;;3.17;1.77;;;;;;;;;;10310139;28;20444;-81
2023/09/06 12:04:38;;;;;;;1.92;1.63;;;;;;;;;;10323611;28;20772;-81
2023/09/06 12:09:41;;;;;;;1.90;1.52;;;;;;;;;;10330531;28;20498;-81
2023/09/06 12:14:43;;;;;;;1.60;1.45;;;;;;;;;;10329524;28;20552;-81
2023/09/06 12:19:47;;;;;;;1.57;1.43;;;;;;;;;;10327556;28;20978;-81
2023/09/06 12:24:51;;;;;;;2.00;1.52;;;;;;;;;;10316523;28;20436;-81
2023/09/06 12:29:54;;;;;;;2.33;1.70;;;;;;;;;;10330139;28;20483;-81
2023/09/06 12:34:57;;;;;;;3.00;1.60;;;;;;;;;;10332421;28;20520;-81
2023/09/06 12:40:00;;;;;;;2.13;1.50;;;;;;;;;;10329740;28;20482;-81
2023/09/06 12:45:03;;;;;;;1.70;1.60;;;;;;;;;;10324207;28;20440;-81
2023/09/06 12:50:08;;;;;;;1.93;1.50;;;;;;;;;;10321702;28;20440;-80
2023/09/06 12:55:10;;;;;;;3.27;1.60;;;;;;;;;;10327109;28;20773;-81
2023/09/06 13:00:14;;;;;;;4.20;2.00;;;;;;;;;;10334735;28;20855;-80
2023/09/06 13:05:20;;;;;;;2.10;1.42;;;;;;;;;;10326827;28;20515;-81
2023/09/06 13:10:22;;;;;;;2.17;1.50;;;;;;;;;;10328747;28;20442;-82
2023/09/06 13:15:24;;;;;;;5.00;1.80;;;;;;;;;;10325492;28;20884;-82
2023/09/06 13:20:29;;;;;;;1.60;1.40;;;;;;;;;;10320203;28;20475;-81
2023/09/06 13:25:32;;;;;;;3.80;1.52;;;;;;;;;;10326741;28;20440;-81
2023/09/06 13:30:34;;;;;;;3.40;1.50;;;;;;;;;;10317681;28;20873;-81
2023/09/06 13:35:38;;;;;;;2.30;1.40;;;;;;;;;;10326960;28;20442;-81
2023/09/06 13:40:40;;;;;;;1.52;1.42;;;;;;;;;;10327517;28;20512;-81
2023/09/06 13:45:42;;;;;;;1.50;1.20;;;;;;;;;;10327543;28;20477;-81
2023/09/06 13:50:46;;;;;;;2.00;1.20;;;;;;;;;;10334609;28;20446;-81
2023/09/06 13:55:48;;;;;;;1.30;1.20;;;;;;;;;;10331777;28;20560;-82
2023/09/06 14:00:55;;;;;;;2.60;1.70;;;;;;;;;;10332664;28;20449;-82
2023/09/06 14:05:59;;;;;;;1.38;1.20;;;;;;;;;;10332225;28;20526;-82
2023/09/06 14:11:01;;;;;;;2.40;1.10;;;;;;;;;;10332079;28;20488;-82
2023/09/06 14:16:05;;;;;;;1.67;0.90;;;;;;;;;;10328419;28;20450;-82
2023/09/06 14:21:09;;;;;;;0.80;0.80;;;;;;;;;;10333184;28;20438;-82
2023/09/06 14:26:11;;;;;;;1.00;0.90;;;;;;;;;;10331577;28;20439;-82
2023/09/06 14:31:13;;;;;;;2.03;1.10;;;;;;;;;;10339632;28;20485;-81
2023/09/06 14:36:17;;;;;;;1.50;0.90;;;;;;;;;;10335994;28;20528;-82
2023/09/06 14:41:19;;;;;;;4.20;0.90;;;;;;;;;;10342554;28;20454;-82
2023/09/06 14:46:22;;;;;;;2.87;1.10;;;;;;;;;;10323568;28;20437;-81
2023/09/06 14:51:25;;;;;;;1.42;0.80;;;;;;;;;;10333525;28;20458;-81
2023/09/06 14:56:27;;;;;;;3.85;1.00;;;;;;;;;;10334646;28;20785;-82
2023/09/06 15:01:30;;;;;;;1.42;1.02;;;;;;;;;;10334498;28;20415;-81
2023/09/06 15:06:33;;;;;;;1.50;1.00;;;;;;;;;;10336641;28;20506;-82
2023/09/06 15:11:36;;;;;;;1.77;0.90;;;;;;;;;;10333356;28;21285;-82
2023/09/06 15:16:38;;;;;;;3.70;1.10;;;;;;;;;;10330002;28;20461;-82
2023/09/06 15:21:43;;;;;;;2.47;1.00;;;;;;;;;;10323060;28;20895;-81
2023/09/06 15:26:45;;;;;;;1.00;0.93;;;;;;;;;;10325698;28;20519;-82
2023/09/06 15:31:47;;;;;;;1.67;1.15;;;;;;;;;;10324410;28;20518;-81
2023/09/06 15:36:51;;;;;;;1.30;1.20;;;;;;;;;;10323436;28;20873;-81
2023/09/06 15:41:53;;;;;;;1.80;1.30;;;;;;;;;;10327554;28;20448;-75
2023/09/06 15:46:58;;;;;;;1.40;1.30;;;;;;;;;;10337027;28;20510;-79
2023/09/06 15:52:01;;;;;;;1.35;1.20;;;;;;;;;;10320384;28;20454;-80
2023/09/06 15:57:04;;;;;;;1.40;1.13;;;;;;;;;;10327443;28;20563;-80
2023/09/06 16:02:07;;;;;;;1.17;1.05;;;;;;;;;;10325445;28;20507;-81
2023/09/06 16:07:11;;;;;;;1.30;1.15;;;;;;;;;;10324582;28;20486;-80
2023/09/06 16:12:13;;;;;;;2.45;1.30;;;;;;;;;;10318598;28;20464;-80
2023/09/06 16:17:15;;;;;;;2.00;1.45;;;;;;;;;;10323401;28;21001;-80
2023/09/06 16:22:21;;;;;;;1.40;1.30;;;;;;;;;;10308872;28;20441;-81
2023/09/06 16:27:24;;;;;;;3.63;1.40;;;;;;;;;;10314478;28;20493;-80
2023/09/06 16:32:26;;;;;;;1.95;1.67;;;;;;;;;;10327316;28;20526;-80
2023/09/06 16:37:30;;;;;;;4.57;1.50;;;;;;;;;;10328859;28;20898;-80
2023/09/06 16:42:32;;;;;;;2.10;1.42;;;;;;;;;;10309814;28;20527;-80
2023/09/06 16:47:34;;;;;;;2.97;1.42;;;;;;;;;;10296207;28;20446;-80
2023/09/06 16:52:38;;;;;;;3.20;1.60;;;;;;;;;;10307713;28;20456;-80
2023/09/06 16:57:40;;;;;;;3.67;1.42;;;;;;;;;;10315720;28;20511;-81
2023/09/06 17:02:43;;;;;;;1.98;1.30;;;;;;;;;;10322029;28;20990;-80
2023/09/06 17:07:48;;;;;;;1.58;1.48;;;;;;;;;;10326147;28;20819;-80
2023/09/06 17:12:50;;;;;;;1.70;1.60;;;;;;;;;;10324054;28;20457;-80
2023/09/06 17:17:53;;;;;;;2.55;1.65;;;;;;;;;;10334051;28;20847;-81
2023/09/06 17:22:57;;;;;;;5.15;1.70;;;;;;;;;;10333033;28;20460;-80
2023/09/06 17:28:03;;;;;;;2.72;1.70;;;;;;;;;;10332020;28;20440;-81
2023/09/06 17:33:14;;;;;;;3.75;1.70;;;;;;;;;;10331523;28;20464;-81
2023/09/06 17:38:19;;;;;;;2.25;1.60;;;;;;;;;;10335958;28;20454;-80
2023/09/06 17:43:22;;;;;;;3.00;1.90;;;;;;;;;;10329618;28;20456;-80
2023/09/06 17:48:25;;;;;;;2.10;1.90;;;;;;;;;;10329574;28;20462;-81
2023/09/06 17:53:30;;;;;;;4.15;2.30;;;;;;;;;;10329589;28;20450;-81
2023/09/06 17:58:32;;;;;;;2.40;2.13;;;;;;;;;;10332758;28;20449;-81
2023/09/06 18:03:37;;;;;;;4.82;2.10;;;;;;;;;;10326264;28;20510;-80
2023/09/06 18:08:42;;;;;;;3.05;2.30;;;;;;;;;;10325689;28;20458;-80
2023/09/06 18:13:45;;;;;;;3.28;2.20;;;;;;;;;;10318420;28;20448;-80
2023/09/06 18:18:48;;;;;;;3.17;2.70;;;;;;;;;;10321794;28;20935;-80
2023/09/06 18:23:52;;;;;;;6.50;3.15;;;;;;;;;;10332299;28;20527;-80
2023/09/06 18:28:54;;;;;;;4.87;2.70;;;;;;;;;;10326767;28;20523;-80
2023/09/06 18:33:56;;;;;;;4.30;2.70;;;;;;;;;;10335114;28;20493;-81
2023/09/06 18:39:00;;;;;;;5.30;3.00;;;;;;;;;;10326551;28;20444;-80
2023/09/06 18:44:02;;;;;;;6.85;2.97;;;;;;;;;;10335867;28;20475;-80
2023/09/06 18:49:07;;;;;;;4.93;3.10;;;;;;;;;;10330558;28;20454;-81
2023/09/06 18:54:10;;;;;;;5.37;3.40;;;;;;;;;;10327680;28;21090;-81
2023/09/06 18:59:13;;;;;;;10.15;3.60;;;;;;;;;;10328552;28;20527;-80
2023/09/06 19:04:15;;;;;;;8.80;4.35;;;;;;;;;;10321103;28;20464;-80
2023/09/06 19:09:19;;;;;;;10.05;3.92;;;;;;;;;;10333545;28;20517;-80
2023/09/06 19:14:21;;;;;;;6.95;3.97;;;;;;;;;;10327895;28;20449;-81
2023/09/06 19:19:31;;;;;;;5.13;3.17;;;;;;;;;;10331158;28;21204;-80
2023/09/06 19:24:35;;;;;;;3.83;3.25;;;;;;;;;;10324473;28;20462;-81
2023/09/06 19:29:37;;;;;;;5.95;3.20;;;;;;;;;;10328193;28;20539;-80
2023/09/06 19:34:45;;;;;;;5.82;2.70;;;;;;;;;;10326974;28;20551;-80
2023/09/06 19:39:49;;;;;;;6.43;2.85;;;;;;;;;;10325354;28;20460;-80
2023/09/06 19:44:52;;;;;;;6.70;3.13;;;;;;;;;;10325296;28;20905;-80
2023/09/06 19:49:55;;;;;;;5.00;3.30;;;;;;;;;;10332933;28;20575;-80
2023/09/06 19:55:02;;;;;;;4.20;2.85;;;;;;;;;;10328884;28;21011;-80
2023/09/06 20:00:10;;;;;;;6.90;3.30;;;;;;;;;;10313387;28;20457;-80
2023/09/06 20:05:12;;;;;;;5.15;3.40;;;;;;;;;;10280913;28;20490;-81
2023/09/06 20:10:16;;;;;;;4.90;3.67;;;;;;;;;;10290110;28;20778;-80
2023/09/06 20:15:18;;;;;;;6.63;3.85;;;;;;;;;;10287989;28;20456;-81
2023/09/06 20:20:20;;;;;;;7.75;3.60;;;;;;;;;;10288750;28;20450;-80
2023/09/06 20:25:24;;;;;;;5.55;3.40;;;;;;;;;;10290701;28;20527;-81
2023/09/06 20:30:26;;;;;;;5.05;3.17;;;;;;;;;;10284745;28;20932;-80
2023/09/06 20:35:29;;;;;;;6.13;3.22;;;;;;;;;;10284283;28;20498;-80
2023/09/06 20:40:33;;;;;;;5.97;3.40;;;;;;;;;;10287316;28;20473;-81
2023/09/06 20:45:36;;;;;;;6.90;3.70;;;;;;;;;;10286072;28;20443;-76
2023/09/06 20:50:38;;;;;;;7.37;3.70;;;;;;;;;;10293861;28;20452;-80
2023/09/06 20:55:43;;;;;;;4.53;3.63;;;;;;;;;;10284885;28;20466;-81
2023/09/06 21:00:46;;;;;;;5.10;3.47;;;;;;;;;;10294586;28;20464;-81
2023/09/06 21:05:56;;;;;;;4.65;3.38;;;;;;;;;;10289794;28;20505;-81
2023/09/06 21:10:59;;;;;;;6.38;3.17;;;;;;;;;;10295393;28;20514;-81
2023/09/06 21:16:02;;;;;;;3.57;3.03;;;;;;;;;;10294304;28;21018;-81
2023/09/06 21:21:04;;;;;;;5.97;3.03;;;;;;;;;;10293946;28;20557;-81
2023/09/06 21:26:08;;;;;;;4.95;3.22;;;;;;;;;;10292293;28;20533;-82
2023/09/06 21:31:10;;;;;;;8.45;3.40;;;;;;;;;;10294715;28;20459;-81
2023/09/06 21:36:13;;;;;;;6.23;3.27;;;;;;;;;;10294525;28;20453;-81
2023/09/06 21:41:16;;;;;;;4.50;3.08;;;;;;;;;;10285319;28;20511;-82
2023/09/06 21:46:19;;;;;;;3.83;2.90;;;;;;;;;;10285225;28;20438;-78
2023/09/06 21:51:21;;;;;;;4.63;2.80;;;;;;;;;;10260865;28;20652;-79
2023/09/06 21:56:25;;;;;;;4.57;2.83;;;;;;;;;;10298870;28;20453;-79
2023/09/06 22:01:27;;;;;;;4.00;3.20;;;;;;;;;;10295416;28;20454;-79
2023/09/06 22:06:30;;;;;;;5.57;3.27;;;;;;;;;;10303111;28;20511;-79
2023/09/06 22:11:34;;;;;;;5.30;4.00;;;;;;;;;;10294915;28;20926;-80
2023/09/06 22:16:36;;;;;;;5.95;3.78;;;;;;;;;;10278014;28;20904;-79
2023/09/06 22:21:39;;;;;;;5.60;3.47;;;;;;;;;;10283460;28;20438;-79
2023/09/06 22:26:42;;;;;;;6.03;3.80;;;;;;;;;;10292471;28;20458;-78
2023/09/06 22:31:46;;;;;;;6.70;4.10;;;;;;;;;;10296064;28;20505;-78
2023/09/06 22:36:48;;;;;;;7.03;4.47;;;;;;;;;;10285333;28;20470;-79
2023/09/06 22:41:52;;;;;;;6.07;4.25;;;;;;;;;;10297209;28;20478;-78
2023/09/06 22:46:54;;;;;;;5.50;3.80;;;;;;;;;;10320015;28;20460;-79
2023/09/06 22:51:56;;;;;;;4.13;3.28;;;;;;;;;;10326931;28;20521;-79
2023/09/06 22:57:00;;;;;;;4.82;3.30;;;;;;;;;;10334899;28;20460;-80
2023/09/06 23:02:02;;;;;;;3.33;2.72;;;;;;;;;;10316366;23;20451;-85
2023/09/06 23:07:05;;;;;;;4.17;2.73;;;;;;;;;;10299039;28;20450;-86
2023/09/06 23:12:08;;;;;;;4.38;2.75;;;;;;;;;;10295184;28;20421;-86
2023/09/06 23:17:13;;;;;;;4.60;2.75;;;;;;;;;;10303758;28;20468;-85
2023/09/06 23:22:18;;;;;;;4.32;2.55;;;;;;;;;;10299567;28;20437;-86
2023/09/06 23:27:23;;;;;;;4.25;2.78;;;;;;;;;;10298266;28;20703;-86
2023/09/06 23:32:30;;;;;;;4.43;3.00;;;;;;;;;;10296666;28;20413;-86
2023/09/06 23:37:33;;;;;;;3.85;3.05;;;;;;;;;;10303185;28;20935;-86
2023/09/06 23:42:37;;;;;;;3.07;2.77;;;;;;;;;;10296464;28;20405;-85
2023/09/06 23:47:39;;;;;;;3.40;2.47;;;;;;;;;;10299479;28;20417;-87
2023/09/06 23:52:41;;;;;;;3.07;2.40;;;;;;;;;;10304183;28;20465;-86
2023/09/06 23:57:45;;;;;;;3.80;2.53;;;;;;;;;;10300233;28;20430;-85
